Hlavní strana
METAR-TAF:

METAR-TAF

Letiště :

Kinshasa, Kongo

zeměpisná šířka: 04-23S, zeměpisná délka: 015-26E, výška: 309 m

Aktuální stav počasí

Zpráva byla vytvořena před 28 minutami, v 16:00 UTC
Bezvětří
Teplota 29°C
Vlhkost vzduchu 55%
Tlak 1012 hPa
Viditelnost: 5000 m
zákal

METAR: FZAA 181600Z 00000KT 5000 HZ NSC 29/19 Q1012 NOSIG

Čas: 17:28 (16:28 UTC)

Předpověď počasí

Zpráva byla vytvořena před 5 hodinami a 28 minutami, v 11:00 UTC
Předpověď platná od 18 v 12 UTC do 19 v 18 UTC
Západoseverozápadní vítr 10 kt
Viditelnost: 6000 m
Oblačno až skoro zataženo ve výšce 2000 ft
Změna
od 18 v 13 UTC do 18 v 15 UTC
Jižní vítr 4 kt
Změna
od 18 v 20 UTC do 18 v 22 UTC
Viditelnost: 4000 m
Oblačno až skoro zataženo ve výšce 1400 ft
kouřmo
Změna
od 19 v 08 UTC do 19 v 10 UTC
Severozápadní vítr 10 kt
Viditelnost: 6000 m
Polojasno ve výšce 2200 ft

TAF: FZAA 181100Z 1812/1918 30010KT 6000 BKN020 BECMG 1813/1815 18004KT NSC BECMG 1820/1822 4000 BR BKN014 BECMG 1908/1910 32010KT 6000 NSW SCT022

Stav a předpovědi počasí z více než 4 000 letišť (zprávy METAR a TAF).

Červené a žluté tečky na mapě představují dostupné meteorologické stanice.

Když kurzor umístíte na tečku, zobrazí se název stanice.

Pak kliknutím zobrazíte stav a předpověď počasí.

Chcete-li změnit mapu, kliknutím na zelené tlačítko se znaménkem +mapu přiblížíte, kliknutím na zelené tlačítko se znaménkem – mapu oddálíte a kliknutím na zelené šipky přejdete na sousední mapy.


METAR-TAF: